sensor_id;sensor_type;location;lat;lon;timestamp;pressure;altitude;pressure_sealevel;temperature;humidity
9462;BME280;4769;42.660;23.262;2024-03-17T00:00:44;94226.59;;;9.62;91.96
9462;BME280;4769;42.660;23.262;2024-03-17T00:03:10;94227.03;;;9.70;91.83
9462;BME280;4769;42.660;23.262;2024-03-17T00:05:36;94222.56;;;9.71;91.57
9462;BME280;4769;42.660;23.262;2024-03-17T00:08:02;94221.53;;;9.72;91.38
9462;BME280;4769;42.660;23.262;2024-03-17T00:10:32;94226.22;;;9.70;91.52
9462;BME280;4769;42.660;23.262;2024-03-17T00:12:58;94224.28;;;9.65;91.53
9462;BME280;4769;42.660;23.262;2024-03-17T00:15:24;94216.94;;;9.67;91.41
9462;BME280;4769;42.660;23.262;2024-03-17T00:17:49;94221.19;;;9.68;91.34
9462;BME280;4769;42.660;23.262;2024-03-17T00:20:15;94224.06;;;9.67;91.20
9462;BME280;4769;42.660;23.262;2024-03-17T00:22:48;94220.84;;;9.65;91.18
9462;BME280;4769;42.660;23.262;2024-03-17T00:25:14;94213.75;;;9.65;91.21
9462;BME280;4769;42.660;23.262;2024-03-17T00:27:40;94219.16;;;9.59;91.88
9462;BME280;4769;42.660;23.262;2024-03-17T00:30:09;94221.75;;;9.70;91.41
9462;BME280;4769;42.660;23.262;2024-03-17T00:32:38;94212.81;;;9.71;90.74
9462;BME280;4769;42.660;23.262;2024-03-17T00:35:04;94210.53;;;9.63;90.53
9462;BME280;4769;42.660;23.262;2024-03-17T00:37:30;94214.69;;;9.59;91.07
9462;BME280;4769;42.660;23.262;2024-03-17T00:39:55;94205.78;;;9.49;91.76
9462;BME280;4769;42.660;23.262;2024-03-17T00:42:21;94216.97;;;9.44;91.62
9462;BME280;4769;42.660;23.262;2024-03-17T00:44:46;94209.44;;;9.48;91.87
9462;BME280;4769;42.660;23.262;2024-03-17T00:47:11;94211.59;;;9.51;91.71
9462;BME280;4769;42.660;23.262;2024-03-17T00:49:37;94211.81;;;9.49;91.62
9462;BME280;4769;42.660;23.262;2024-03-17T00:52:02;94215.72;;;9.47;91.59
9462;BME280;4769;42.660;23.262;2024-03-17T00:54:28;94208.66;;;9.36;91.90
9462;BME280;4769;42.660;23.262;2024-03-17T00:56:53;94217.47;;;9.41;91.45
9462;BME280;4769;42.660;23.262;2024-03-17T00:59:19;94218.63;;;9.34;91.89
9462;BME280;4769;42.660;23.262;2024-03-17T01:01:44;94214.94;;;9.35;91.37
9462;BME280;4769;42.660;23.262;2024-03-17T01:04:10;94218.47;;;9.29;91.84
9462;BME280;4769;42.660;23.262;2024-03-17T01:06:35;94218.84;;;9.32;91.80
9462;BME280;4769;42.660;23.262;2024-03-17T01:09:01;94219.75;;;9.03;93.40
9462;BME280;4769;42.660;23.262;2024-03-17T01:11:26;94217.69;;;8.94;94.05
9462;BME280;4769;42.660;23.262;2024-03-17T01:13:52;94218.44;;;8.60;96.47
9462;BME280;4769;42.660;23.262;2024-03-17T01:16:17;94218.47;;;8.83;95.96
9462;BME280;4769;42.660;23.262;2024-03-17T01:18:43;94215.28;;;8.92;95.04
9462;BME280;4769;42.660;23.262;2024-03-17T01:21:10;94221.22;;;8.88;94.63
9462;BME280;4769;42.660;23.262;2024-03-17T01:23:36;94222.94;;;8.94;94.84
9462;BME280;4769;42.660;23.262;2024-03-17T01:26:02;94224.53;;;8.83;95.21
9462;BME280;4769;42.660;23.262;2024-03-17T01:28:27;94224.25;;;8.62;96.52
9462;BME280;4769;42.660;23.262;2024-03-17T01:30:53;94220.31;;;7.94;100.00
9462;BME280;4769;42.660;23.262;2024-03-17T01:33:18;94222.50;;;7.97;100.00
9462;BME280;4769;42.660;23.262;2024-03-17T01:35:44;94222.06;;;8.18;100.00
9462;BME280;4769;42.660;23.262;2024-03-17T01:38:09;94222.13;;;8.29;100.00
9462;BME280;4769;42.660;23.262;2024-03-17T01:40:37;94208.47;;;8.21;99.95
9462;BME280;4769;42.660;23.262;2024-03-17T01:43:03;94222.16;;;8.41;99.49
9462;BME280;4769;42.660;23.262;2024-03-17T01:45:32;94216.41;;;8.32;100.00
9462;BME280;4769;42.660;23.262;2024-03-17T01:48:03;94221.81;;;8.49;99.15
9462;BME280;4769;42.660;23.262;2024-03-17T01:50:35;94217.06;;;8.57;97.90
9462;BME280;4769;42.660;23.262;2024-03-17T01:53:06;94218.75;;;8.52;98.53
9462;BME280;4769;42.660;23.262;2024-03-17T01:55:33;94217.53;;;8.66;97.58
9462;BME280;4769;42.660;23.262;2024-03-17T01:58:00;94211.59;;;8.70;97.02
9462;BME280;4769;42.660;23.262;2024-03-17T02:00:25;94217.09;;;8.69;96.66
9462;BME280;4769;42.660;23.262;2024-03-17T02:02:52;94210.47;;;8.66;96.12
9462;BME280;4769;42.660;23.262;2024-03-17T02:05:17;94210.47;;;8.25;97.14
9462;BME280;4769;42.660;23.262;2024-03-17T02:07:43;94215.84;;;8.12;97.76
9462;BME280;4769;42.660;23.262;2024-03-17T02:10:08;94213.13;;;8.19;98.34
9462;BME280;4769;42.660;23.262;2024-03-17T02:12:34;94217.22;;;8.33;97.96
9462;BME280;4769;42.660;23.262;2024-03-17T02:15:01;94217.13;;;8.39;97.79
9462;BME280;4769;42.660;23.262;2024-03-17T02:17:30;94213.66;;;8.27;98.41
9462;BME280;4769;42.660;23.262;2024-03-17T02:19:56;94216.06;;;8.29;98.17
9462;BME280;4769;42.660;23.262;2024-03-17T02:22:21;94207.69;;;8.20;99.00
9462;BME280;4769;42.660;23.262;2024-03-17T02:24:47;94213.75;;;8.21;99.50
9462;BME280;4769;42.660;23.262;2024-03-17T02:27:12;94215.63;;;8.32;98.70
9462;BME280;4769;42.660;23.262;2024-03-17T02:29:38;94214.28;;;8.41;97.33
9462;BME280;4769;42.660;23.262;2024-03-17T02:32:07;94215.53;;;8.38;97.03
9462;BME280;4769;42.660;23.262;2024-03-17T02:34:36;94216.66;;;8.42;97.21
9462;BME280;4769;42.660;23.262;2024-03-17T02:37:02;94219.06;;;8.44;97.23
9462;BME280;4769;42.660;23.262;2024-03-17T02:39:29;94213.72;;;8.50;97.48
9462;BME280;4769;42.660;23.262;2024-03-17T02:42:06;94207.22;;;8.53;96.91
9462;BME280;4769;42.660;23.262;2024-03-17T02:44:33;94203.44;;;8.49;97.61
9462;BME280;4769;42.660;23.262;2024-03-17T02:47:00;94211.53;;;8.47;96.75
9462;BME280;4769;42.660;23.262;2024-03-17T02:49:27;94215.41;;;8.45;96.81
9462;BME280;4769;42.660;23.262;2024-03-17T02:51:55;94206.88;;;8.49;96.54
9462;BME280;4769;42.660;23.262;2024-03-17T02:54:21;94210.53;;;8.48;96.41
9462;BME280;4769;42.660;23.262;2024-03-17T02:56:50;94212.13;;;8.49;96.34
9462;BME280;4769;42.660;23.262;2024-03-17T02:59:15;94209.81;;;8.41;96.95
9462;BME280;4769;42.660;23.262;2024-03-17T03:01:41;94200.84;;;8.31;97.39
9462;BME280;4769;42.660;23.262;2024-03-17T03:04:06;94203.66;;;8.36;97.13
9462;BME280;4769;42.660;23.262;2024-03-17T03:06:33;94199.25;;;8.30;97.70
9462;BME280;4769;42.660;23.262;2024-03-17T03:08:58;94202.47;;;8.32;97.50
9462;BME280;4769;42.660;23.262;2024-03-17T03:11:24;94201.59;;;8.20;97.75
9462;BME280;4769;42.660;23.262;2024-03-17T03:13:49;94193.53;;;8.21;97.85
9462;BME280;4769;42.660;23.262;2024-03-17T03:16:17;94196.50;;;8.25;98.03
9462;BME280;4769;42.660;23.262;2024-03-17T03:18:46;94197.66;;;8.29;97.49
9462;BME280;4769;42.660;23.262;2024-03-17T03:21:11;94194.75;;;8.19;97.96
9462;BME280;4769;42.660;23.262;2024-03-17T03:23:41;94192.72;;;8.21;97.98
9462;BME280;4769;42.660;23.262;2024-03-17T03:26:06;94190.00;;;8.27;97.82
9462;BME280;4769;42.660;23.262;2024-03-17T03:28:34;94192.72;;;8.21;97.36
9462;BME280;4769;42.660;23.262;2024-03-17T03:31:00;94196.72;;;8.23;97.47
9462;BME280;4769;42.660;23.262;2024-03-17T03:33:25;94196.09;;;8.39;96.68
9462;BME280;4769;42.660;23.262;2024-03-17T03:35:52;94202.69;;;8.30;96.86
9462;BME280;4769;42.660;23.262;2024-03-17T03:38:18;94198.78;;;8.21;96.79
9462;BME280;4769;42.660;23.262;2024-03-17T03:40:47;94202.59;;;8.07;96.85
9462;BME280;4769;42.660;23.262;2024-03-17T03:43:13;94207.16;;;8.12;97.17
9462;BME280;4769;42.660;23.262;2024-03-17T03:45:39;94215.03;;;8.12;97.38
9462;BME280;4769;42.660;23.262;2024-03-17T03:48:05;94212.28;;;8.25;96.69
9462;BME280;4769;42.660;23.262;2024-03-17T03:50:31;94208.66;;;8.19;96.67
9462;BME280;4769;42.660;23.262;2024-03-17T03:52:57;94219.84;;;8.15;96.86
9462;BME280;4769;42.660;23.262;2024-03-17T03:55:23;94224.63;;;8.06;97.98
9462;BME280;4769;42.660;23.262;2024-03-17T03:57:49;94223.13;;;7.99;97.86
9462;BME280;4769;42.660;23.262;2024-03-17T04:00:17;94225.28;;;8.02;98.24
9462;BME280;4769;42.660;23.262;2024-03-17T04:02:48;94230.53;;;8.02;98.29
9462;BME280;4769;42.660;23.262;2024-03-17T04:05:14;94225.31;;;8.13;98.03
9462;BME280;4769;42.660;23.262;2024-03-17T04:07:40;94228.47;;;8.22;97.59
9462;BME280;4769;42.660;23.262;2024-03-17T04:10:08;94231.09;;;8.22;97.40
9462;BME280;4769;42.660;23.262;2024-03-17T04:12:34;94230.88;;;8.05;97.57
9462;BME280;4769;42.660;23.262;2024-03-17T04:14:59;94235.75;;;8.20;97.54
9462;BME280;4769;42.660;23.262;2024-03-17T04:17:26;94236.03;;;8.30;96.16
9462;BME280;4769;42.660;23.262;2024-03-17T04:19:53;94233.50;;;8.23;96.28
9462;BME280;4769;42.660;23.262;2024-03-17T04:22:20;94241.22;;;8.18;96.44
9462;BME280;4769;42.660;23.262;2024-03-17T04:24:47;94241.22;;;8.18;96.76
9462;BME280;4769;42.660;23.262;2024-03-17T04:27:21;94247.66;;;8.22;96.71
9462;BME280;4769;42.660;23.262;2024-03-17T04:29:47;94246.41;;;8.25;96.17
9462;BME280;4769;42.660;23.262;2024-03-17T04:32:16;94250.50;;;8.21;96.45
9462;BME280;4769;42.660;23.262;2024-03-17T04:34:41;94247.88;;;8.21;96.41
9462;BME280;4769;42.660;23.262;2024-03-17T04:37:09;94253.13;;;8.21;96.48
9462;BME280;4769;42.660;23.262;2024-03-17T04:39:36;94260.56;;;8.24;96.37
9462;BME280;4769;42.660;23.262;2024-03-17T04:42:03;94260.28;;;8.32;95.94
9462;BME280;4769;42.660;23.262;2024-03-17T04:44:29;94267.13;;;8.33;96.03
9462;BME280;4769;42.660;23.262;2024-03-17T04:46:54;94264.28;;;8.34;95.90
9462;BME280;4769;42.660;23.262;2024-03-17T04:49:20;94262.91;;;8.32;96.00
9462;BME280;4769;42.660;23.262;2024-03-17T04:51:45;94269.63;;;8.28;95.93
9462;BME280;4769;42.660;23.262;2024-03-17T04:54:11;94266.91;;;8.34;95.87
9462;BME280;4769;42.660;23.262;2024-03-17T04:56:36;94276.16;;;8.37;95.47
9462;BME280;4769;42.660;23.262;2024-03-17T04:59:02;94278.13;;;8.41;94.78
9462;BME280;4769;42.660;23.262;2024-03-17T05:01:27;94282.34;;;8.42;95.11
9462;BME280;4769;42.660;23.262;2024-03-17T05:03:53;94285.22;;;8.41;94.69
9462;BME280;4769;42.660;23.262;2024-03-17T05:06:18;94284.53;;;8.45;94.90
9462;BME280;4769;42.660;23.262;2024-03-17T05:08:43;94281.69;;;8.47;94.71
9462;BME280;4769;42.660;23.262;2024-03-17T05:11:09;94297.81;;;8.50;94.61
9462;BME280;4769;42.660;23.262;2024-03-17T05:13:36;94290.72;;;8.51;94.66
9462;BME280;4769;42.660;23.262;2024-03-17T05:16:04;94294.75;;;8.53;94.96
9462;BME280;4769;42.660;23.262;2024-03-17T05:18:30;94304.34;;;8.59;94.84
9462;BME280;4769;42.660;23.262;2024-03-17T05:21:03;94312.41;;;8.76;94.92
9462;BME280;4769;42.660;23.262;2024-03-17T05:23:29;94304.56;;;8.87;94.64
9462;BME280;4769;42.660;23.262;2024-03-17T05:25:55;94312.91;;;8.96;94.58
9462;BME280;4769;42.660;23.262;2024-03-17T05:28:21;94312.03;;;9.02;94.45
9462;BME280;4769;42.660;23.262;2024-03-17T05:30:47;94304.94;;;9.14;94.06
9462;BME280;4769;42.660;23.262;2024-03-17T05:33:13;94305.19;;;9.24;94.09
9462;BME280;4769;42.660;23.262;2024-03-17T05:35:39;94308.19;;;9.39;93.60
9462;BME280;4769;42.660;23.262;2024-03-17T05:38:04;94309.22;;;9.49;93.43
9462;BME280;4769;42.660;23.262;2024-03-17T05:40:30;94297.91;;;9.60;93.09
9462;BME280;4769;42.660;23.262;2024-03-17T05:42:56;94303.50;;;9.75;92.25
9462;BME280;4769;42.660;23.262;2024-03-17T05:45:21;94300.50;;;9.83;91.66
9462;BME280;4769;42.660;23.262;2024-03-17T05:47:49;94298.78;;;9.89;91.40
9462;BME280;4769;42.660;23.262;2024-03-17T05:50:15;94300.94;;;9.92;91.06
9462;BME280;4769;42.660;23.262;2024-03-17T05:52:40;94301.88;;;9.97;90.25
9462;BME280;4769;42.660;23.262;2024-03-17T05:55:06;94307.69;;;9.99;89.73
9462;BME280;4769;42.660;23.262;2024-03-17T05:57:32;94304.16;;;10.05;89.46
9462;BME280;4769;42.660;23.262;2024-03-17T05:59:57;94302.34;;;10.06;89.07
9462;BME280;4769;42.660;23.262;2024-03-17T06:02:23;94310.94;;;10.13;88.77
9462;BME280;4769;42.660;23.262;2024-03-17T06:04:48;94311.69;;;10.25;88.55
9462;BME280;4769;42.660;23.262;2024-03-17T06:07:13;94306.06;;;10.33;87.94
9462;BME280;4769;42.660;23.262;2024-03-17T06:09:39;94311.31;;;10.33;87.00
9462;BME280;4769;42.660;23.262;2024-03-17T06:12:05;94306.03;;;10.44;86.14
9462;BME280;4769;42.660;23.262;2024-03-17T06:14:31;94310.66;;;10.26;85.58
9462;BME280;4769;42.660;23.262;2024-03-17T06:16:59;94313.19;;;10.21;86.62
9462;BME280;4769;42.660;23.262;2024-03-17T06:19:24;94315.03;;;10.20;86.49
9462;BME280;4769;42.660;23.262;2024-03-17T06:21:50;94320.97;;;10.27;86.04
9462;BME280;4769;42.660;23.262;2024-03-17T06:24:16;94315.06;;;10.48;85.26
9462;BME280;4769;42.660;23.262;2024-03-17T06:26:42;94316.81;;;10.71;84.34
9462;BME280;4769;42.660;23.262;2024-03-17T06:29:07;94327.16;;;10.89;83.53
9462;BME280;4769;42.660;23.262;2024-03-17T06:31:32;94328.84;;;10.95;83.14
9462;BME280;4769;42.660;23.262;2024-03-17T06:33:58;94330.59;;;10.89;82.75
9462;BME280;4769;42.660;23.262;2024-03-17T06:36:23;94335.16;;;10.66;83.12
9462;BME280;4769;42.660;23.262;2024-03-17T06:38:49;94334.41;;;10.54;84.14
9462;BME280;4769;42.660;23.262;2024-03-17T06:41:14;94336.06;;;10.43;84.99
9462;BME280;4769;42.660;23.262;2024-03-17T06:43:40;94336.06;;;10.71;84.33
9462;BME280;4769;42.660;23.262;2024-03-17T06:46:07;94337.34;;;10.97;83.57
9462;BME280;4769;42.660;23.262;2024-03-17T06:48:33;94339.09;;;11.08;82.25
9462;BME280;4769;42.660;23.262;2024-03-17T06:50:59;94340.56;;;11.15;82.26
9462;BME280;4769;42.660;23.262;2024-03-17T06:53:25;94336.00;;;11.11;81.82
9462;BME280;4769;42.660;23.262;2024-03-17T06:55:58;94335.75;;;11.29;81.12
9462;BME280;4769;42.660;23.262;2024-03-17T06:58:26;94333.84;;;11.41;80.78
9462;BME280;4769;42.660;23.262;2024-03-17T07:00:56;94334.34;;;11.71;80.24
9462;BME280;4769;42.660;23.262;2024-03-17T07:03:29;94338.91;;;11.92;78.92
9462;BME280;4769;42.660;23.262;2024-03-17T07:05:57;94336.94;;;12.20;78.21
9462;BME280;4769;42.660;23.262;2024-03-17T07:08:23;94335.78;;;12.33;76.60
9462;BME280;4769;42.660;23.262;2024-03-17T07:13:21;94332.84;;;12.51;75.75
9462;BME280;4769;42.660;23.262;2024-03-17T07:15:47;94337.28;;;12.72;75.38
9462;BME280;4769;42.660;23.262;2024-03-17T07:18:12;94335.88;;;12.86;75.04
9462;BME280;4769;42.660;23.262;2024-03-17T07:20:38;94333.78;;;12.88;73.19
9462;BME280;4769;42.660;23.262;2024-03-17T07:23:04;94335.81;;;12.81;73.26
9462;BME280;4769;42.660;23.262;2024-03-17T07:25:30;94336.47;;;12.93;73.15
9462;BME280;4769;42.660;23.262;2024-03-17T07:27:55;94339.47;;;12.96;72.51
9462;BME280;4769;42.660;23.262;2024-03-17T07:30:20;94330.88;;;13.11;72.40
9462;BME280;4769;42.660;23.262;2024-03-17T07:32:46;94332.25;;;12.70;73.74
9462;BME280;4769;42.660;23.262;2024-03-17T07:35:12;94342.09;;;12.96;72.67
9462;BME280;4769;42.660;23.262;2024-03-17T07:37:38;94338.31;;;13.14;71.47
9462;BME280;4769;42.660;23.262;2024-03-17T07:40:05;94340.13;;;13.08;71.50
9462;BME280;4769;42.660;23.262;2024-03-17T07:42:32;94329.25;;;13.10;72.03
9462;BME280;4769;42.660;23.262;2024-03-17T07:44:58;94340.63;;;13.37;71.51
9462;BME280;4769;42.660;23.262;2024-03-17T07:47:23;94334.72;;;13.25;71.34
9462;BME280;4769;42.660;23.262;2024-03-17T07:49:49;94340.69;;;13.42;70.75
9462;BME280;4769;42.660;23.262;2024-03-17T07:52:14;94339.69;;;13.21;71.88
9462;BME280;4769;42.660;23.262;2024-03-17T07:54:40;94338.91;;;13.21;71.58
9462;BME280;4769;42.660;23.262;2024-03-17T07:57:06;94339.34;;;13.39;71.43
9462;BME280;4769;42.660;23.262;2024-03-17T07:59:34;94338.69;;;13.54;70.47
9462;BME280;4769;42.660;23.262;2024-03-17T08:01:59;94339.13;;;13.46;70.45
9462;BME280;4769;42.660;23.262;2024-03-17T08:04:25;94343.34;;;13.42;70.78
9462;BME280;4769;42.660;23.262;2024-03-17T08:06:50;94341.88;;;13.56;70.35
9462;BME280;4769;42.660;23.262;2024-03-17T08:09:16;94339.09;;;13.72;70.22
9462;BME280;4769;42.660;23.262;2024-03-17T08:11:41;94345.78;;;13.85;68.65
9462;BME280;4769;42.660;23.262;2024-03-17T08:14:12;94338.56;;;14.12;68.54
9462;BME280;4769;42.660;23.262;2024-03-17T08:16:37;94340.91;;;14.03;67.58
9462;BME280;4769;42.660;23.262;2024-03-17T08:19:03;94340.78;;;13.83;68.23
9462;BME280;4769;42.660;23.262;2024-03-17T08:21:28;94343.00;;;13.65;68.59
9462;BME280;4769;42.660;23.262;2024-03-17T08:23:55;94338.50;;;13.65;69.21
9462;BME280;4769;42.660;23.262;2024-03-17T08:26:20;94339.88;;;13.73;68.92
9462;BME280;4769;42.660;23.262;2024-03-17T08:28:46;94342.78;;;13.71;69.21
9462;BME280;4769;42.660;23.262;2024-03-17T08:31:12;94340.75;;;13.78;68.53
9462;BME280;4769;42.660;23.262;2024-03-17T08:33:38;94338.88;;;13.47;69.29
9462;BME280;4769;42.660;23.262;2024-03-17T08:36:07;94333.66;;;13.57;70.05
9462;BME280;4769;42.660;23.262;2024-03-17T08:38:33;94332.31;;;13.91;68.58
9462;BME280;4769;42.660;23.262;2024-03-17T08:41:07;94329.78;;;14.07;67.82
9462;BME280;4769;42.660;23.262;2024-03-17T08:43:34;94324.53;;;14.12;67.49
9462;BME280;4769;42.660;23.262;2024-03-17T08:46:04;94314.16;;;14.62;66.69
9462;BME280;4769;42.660;23.262;2024-03-17T08:48:32;94318.00;;;14.91;65.36
9462;BME280;4769;42.660;23.262;2024-03-17T08:50:59;94319.25;;;14.73;64.34
9462;BME280;4769;42.660;23.262;2024-03-17T08:53:25;94323.00;;;14.82;65.78
9462;BME280;4769;42.660;23.262;2024-03-17T08:55:52;94315.91;;;15.23;64.61
9462;BME280;4769;42.660;23.262;2024-03-17T08:58:17;94305.06;;;15.94;62.36
9462;BME280;4769;42.660;23.262;2024-03-17T09:00:43;94303.91;;;16.45;60.80
9462;BME280;4769;42.660;23.262;2024-03-17T09:03:09;94300.50;;;16.40;59.91
9462;BME280;4769;42.660;23.262;2024-03-17T09:05:36;94292.75;;;16.48;58.26
9462;BME280;4769;42.660;23.262;2024-03-17T09:08:02;94293.81;;;16.47;57.06
9462;BME280;4769;42.660;23.262;2024-03-17T09:10:27;94291.94;;;16.38;56.90
9462;BME280;4769;42.660;23.262;2024-03-17T09:12:53;94291.03;;;16.72;55.98
9462;BME280;4769;42.660;23.262;2024-03-17T09:15:18;94292.84;;;15.93;59.31
9462;BME280;4769;42.660;23.262;2024-03-17T09:17:43;94292.00;;;16.18;58.02
9462;BME280;4769;42.660;23.262;2024-03-17T09:20:11;94286.88;;;16.41;56.77
9462;BME280;4769;42.660;23.262;2024-03-17T09:22:38;94286.88;;;16.41;56.93
9462;BME280;4769;42.660;23.262;2024-03-17T09:25:06;94287.44;;;16.33;56.75
9462;BME280;4769;42.660;23.262;2024-03-17T09:27:35;94282.06;;;16.58;55.54
9462;BME280;4769;42.660;23.262;2024-03-17T09:30:04;94281.56;;;16.31;52.89
9462;BME280;4769;42.660;23.262;2024-03-17T09:32:33;94281.91;;;16.15;52.79
9462;BME280;4769;42.660;23.262;2024-03-17T09:34:59;94274.22;;;15.98;51.24
9462;BME280;4769;42.660;23.262;2024-03-17T09:37:24;94274.94;;;16.24;50.57
9462;BME280;4769;42.660;23.262;2024-03-17T09:39:50;94268.66;;;15.90;50.62
9462;BME280;4769;42.660;23.262;2024-03-17T09:42:19;94257.88;;;16.50;51.13
9462;BME280;4769;42.660;23.262;2024-03-17T09:44:48;94271.41;;;17.07;47.30
9462;BME280;4769;42.660;23.262;2024-03-17T09:47:21;94260.22;;;16.61;46.66
9462;BME280;4769;42.660;23.262;2024-03-17T09:49:47;94263.34;;;17.17;47.48
9462;BME280;4769;42.660;23.262;2024-03-17T09:52:24;94268.09;;;17.63;45.08
9462;BME280;4769;42.660;23.262;2024-03-17T09:55:01;94262.75;;;17.92;45.20
9462;BME280;4769;42.660;23.262;2024-03-17T09:57:31;94261.78;;;17.83;42.44
9462;BME280;4769;42.660;23.262;2024-03-17T09:59:58;94263.72;;;17.00;43.41
9462;BME280;4769;42.660;23.262;2024-03-17T10:02:23;94263.63;;;15.73;42.23
9462;BME280;4769;42.660;23.262;2024-03-17T10:04:49;94272.69;;;15.67;42.47
9462;BME280;4769;42.660;23.262;2024-03-17T10:07:14;94271.25;;;16.15;41.72
9462;BME280;4769;42.660;23.262;2024-03-17T10:09:42;94263.22;;;16.30;41.50
9462;BME280;4769;42.660;23.262;2024-03-17T10:12:29;94268.00;;;16.38;41.49
9462;BME280;4769;42.660;23.262;2024-03-17T10:14:58;94268.81;;;16.33;41.62
9462;BME280;4769;42.660;23.262;2024-03-17T10:17:31;94263.84;;;15.92;42.46
9462;BME280;4769;42.660;23.262;2024-03-17T10:20:16;94260.88;;;16.08;42.63
9462;BME280;4769;42.660;23.262;2024-03-17T10:23:05;94270.81;;;15.53;46.73
9462;BME280;4769;42.660;23.262;2024-03-17T10:25:33;94274.50;;;15.32;48.45
9462;BME280;4769;42.660;23.262;2024-03-17T10:28:01;94270.50;;;15.29;50.00
9462;BME280;4769;42.660;23.262;2024-03-17T10:30:28;94268.06;;;16.13;48.56
9462;BME280;4769;42.660;23.262;2024-03-17T10:32:57;94260.50;;;16.55;46.31
9462;BME280;4769;42.660;23.262;2024-03-17T10:35:28;94264.53;;;16.37;46.03
9462;BME280;4769;42.660;23.262;2024-03-17T10:37:58;94264.56;;;16.22;47.13
9462;BME280;4769;42.660;23.262;2024-03-17T10:40:25;94264.66;;;15.97;46.77
9462;BME280;4769;42.660;23.262;2024-03-17T10:42:51;94267.63;;;15.61;47.58
9462;BME280;4769;42.660;23.262;2024-03-17T10:45:17;94273.66;;;15.06;44.95
9462;BME280;4769;42.660;23.262;2024-03-17T10:47:50;94266.31;;;15.63;45.49
9462;BME280;4769;42.660;23.262;2024-03-17T10:50:23;94274.78;;;15.70;46.27
9462;BME280;4769;42.660;23.262;2024-03-17T10:52:52;94267.34;;;15.87;47.12
9462;BME280;4769;42.660;23.262;2024-03-17T10:55:21;94267.22;;;16.42;46.33
9462;BME280;4769;42.660;23.262;2024-03-17T10:57:49;94259.00;;;16.87;46.04
9462;BME280;4769;42.660;23.262;2024-03-17T11:00:16;94255.56;;;16.87;44.72
9462;BME280;4769;42.660;23.262;2024-03-17T11:02:44;94257.06;;;17.03;46.27
9462;BME280;4769;42.660;23.262;2024-03-17T11:07:37;94252.50;;;17.08;46.59
9462;BME280;4769;42.660;23.262;2024-03-17T11:10:09;94257.81;;;17.08;46.50
9462;BME280;4769;42.660;23.262;2024-03-17T11:20:32;94250.25;;;18.16;44.02
9462;BME280;4769;42.660;23.262;2024-03-17T11:22:59;94260.63;;;16.83;44.60
9462;BME280;4769;42.660;23.262;2024-03-17T11:28:07;94233.66;;;16.41;45.20
9462;BME280;4769;42.660;23.262;2024-03-17T11:30:43;94241.72;;;16.16;45.10
9462;BME280;4769;42.660;23.262;2024-03-17T11:39:03;94219.75;;;17.98;46.39
9462;BME280;4769;42.660;23.262;2024-03-17T11:52:30;94208.72;;;19.31;34.61
9462;BME280;4769;42.660;23.262;2024-03-17T11:54:48;94199.06;;;20.26;32.48
9462;BME280;4769;42.660;23.262;2024-03-17T11:57:20;94192.59;;;19.17;34.10
9462;BME280;4769;42.660;23.262;2024-03-17T11:59:49;94204.88;;;17.64;37.74
9462;BME280;4769;42.660;23.262;2024-03-17T12:02:22;94208.84;;;17.38;39.12
9462;BME280;4769;42.660;23.262;2024-03-17T12:04:52;94206.78;;;16.43;41.07
9462;BME280;4769;42.660;23.262;2024-03-17T12:07:19;94205.81;;;16.77;40.50
9462;BME280;4769;42.660;23.262;2024-03-17T12:09:46;94206.53;;;16.34;42.00
9462;BME280;4769;42.660;23.262;2024-03-17T12:12:23;94200.41;;;15.40;44.33
9462;BME280;4769;42.660;23.262;2024-03-17T12:14:49;94221.63;;;14.90;46.01
9462;BME280;4769;42.660;23.262;2024-03-17T12:17:20;94215.25;;;15.01;46.54
9462;BME280;4769;42.660;23.262;2024-03-17T12:19:48;94211.00;;;14.80;47.43
9462;BME280;4769;42.660;23.262;2024-03-17T12:22:17;94215.25;;;14.91;48.36
9462;BME280;4769;42.660;23.262;2024-03-17T12:24:43;94226.34;;;14.73;50.03
9462;BME280;4769;42.660;23.262;2024-03-17T12:27:17;94220.97;;;14.33;51.98
9462;BME280;4769;42.660;23.262;2024-03-17T12:29:43;94214.97;;;14.83;51.51
9462;BME280;4769;42.660;23.262;2024-03-17T12:32:22;94211.25;;;14.84;52.67
9462;BME280;4769;42.660;23.262;2024-03-17T12:34:52;94209.91;;;14.76;53.85
9462;BME280;4769;42.660;23.262;2024-03-17T12:37:20;94202.44;;;14.48;55.18
9462;BME280;4769;42.660;23.262;2024-03-17T12:39:46;94206.44;;;14.66;55.21
9462;BME280;4769;42.660;23.262;2024-03-17T12:44:50;94194.00;;;14.91;55.63
9462;BME280;4769;42.660;23.262;2024-03-17T12:47:17;94204.09;;;14.89;56.14
9462;BME280;4769;42.660;23.262;2024-03-17T12:49:48;94204.09;;;14.99;56.44
9462;BME280;4769;42.660;23.262;2024-03-17T12:55:09;94203.59;;;15.07;56.77
9462;BME280;4769;42.660;23.262;2024-03-17T12:58:05;94198.38;;;14.26;59.54
9462;BME280;4769;42.660;23.262;2024-03-17T13:00:57;94203.47;;;14.37;59.85
9462;BME280;4769;42.660;23.262;2024-03-17T13:03:25;94205.59;;;14.50;60.34
9462;BME280;4769;42.660;23.262;2024-03-17T13:05:51;94198.19;;;14.57;60.24
9462;BME280;4769;42.660;23.262;2024-03-17T13:08:17;94196.06;;;14.54;60.05
9462;BME280;4769;42.660;23.262;2024-03-17T13:10:43;94189.75;;;14.85;58.98
9462;BME280;4769;42.660;23.262;2024-03-17T13:13:09;94190.25;;;14.62;59.71
9462;BME280;4769;42.660;23.262;2024-03-17T13:15:35;94193.16;;;14.66;59.69
9462;BME280;4769;42.660;23.262;2024-03-17T13:18:01;94189.19;;;14.68;60.02
9462;BME280;4769;42.660;23.262;2024-03-17T13:20:27;94188.94;;;14.95;59.70
9462;BME280;4769;42.660;23.262;2024-03-17T13:22:53;94188.16;;;15.09;58.69
9462;BME280;4769;42.660;23.262;2024-03-17T13:25:26;94186.59;;;14.98;59.24
9462;BME280;4769;42.660;23.262;2024-03-17T13:27:55;94191.59;;;14.70;59.99
9462;BME280;4769;42.660;23.262;2024-03-17T13:30:23;94197.59;;;14.35;62.24
9462;BME280;4769;42.660;23.262;2024-03-17T13:32:50;94193.41;;;14.49;62.68
9462;BME280;4769;42.660;23.262;2024-03-17T13:35:21;94194.66;;;14.27;64.29
9462;BME280;4769;42.660;23.262;2024-03-17T13:37:51;94188.06;;;14.39;64.03
9462;BME280;4769;42.660;23.262;2024-03-17T13:40:18;94197.41;;;14.57;63.54
9462;BME280;4769;42.660;23.262;2024-03-17T13:42:45;94194.47;;;14.48;63.62
9462;BME280;4769;42.660;23.262;2024-03-17T13:45:12;94199.78;;;14.58;63.42
9462;BME280;4769;42.660;23.262;2024-03-17T13:47:41;94187.59;;;14.57;62.36
9462;BME280;4769;42.660;23.262;2024-03-17T13:50:07;94192.78;;;14.22;64.01
9462;BME280;4769;42.660;23.262;2024-03-17T13:52:40;94184.19;;;13.95;66.08